createdAt,value
2019-05-09T00:02:25.812Z,3.17
2019-05-09T00:04:55.073Z,3.37
2019-05-09T00:07:24.360Z,3.22
2019-05-09T00:09:53.672Z,3.52
2019-05-09T00:12:23.497Z,2.85
2019-05-09T00:14:54.016Z,3.10
2019-05-09T00:17:23.561Z,3.10
2019-05-09T00:19:54.471Z,3.33
2019-05-09T00:22:24.074Z,3.42
2019-05-09T00:24:53.934Z,3.15
2019-05-09T00:27:23.433Z,3.40
2019-05-09T00:29:53.280Z,2.92
2019-05-09T00:32:24.304Z,2.70
2019-05-09T00:34:58.229Z,3.00
2019-05-09T00:37:45.368Z,3.33
2019-05-09T00:40:14.655Z,3.10
2019-05-09T00:42:44.165Z,3.70
2019-05-09T00:45:21.092Z,4.08
2019-05-09T00:47:50.428Z,4.00
2019-05-09T00:50:19.732Z,3.72
2019-05-09T00:52:50.111Z,3.10
2019-05-09T00:55:19.364Z,3.47
2019-05-09T00:57:48.659Z,3.37
2019-05-09T01:00:18.624Z,3.20
2019-05-09T01:02:47.960Z,3.65
2019-05-09T01:05:17.216Z,2.95
2019-05-09T01:07:46.508Z,3.77
2019-05-09T01:10:15.786Z,3.58
2019-05-09T01:12:45.127Z,3.55
2019-05-09T01:15:14.432Z,4.03
2019-05-09T01:17:44.244Z,3.05
2019-05-09T01:20:14.686Z,3.05
2019-05-09T01:22:44.089Z,3.05
2019-05-09T01:25:14.501Z,2.87
2019-05-09T01:27:43.787Z,3.77
2019-05-09T01:30:13.545Z,3.83
2019-05-09T01:33:03.425Z,3.17
2019-05-09T01:35:33.997Z,3.12
2019-05-09T01:38:03.735Z,5.42
2019-05-09T01:40:33.287Z,3.12
2019-05-09T01:43:04.520Z,3.98
2019-05-09T01:45:34.202Z,3.65
2019-05-09T01:48:03.635Z,2.83
2019-05-09T01:50:34.066Z,3.17
2019-05-09T01:53:04.100Z,4.78
2019-05-09T01:55:53.806Z,4.60
2019-05-09T01:58:23.283Z,4.47
2019-05-09T02:00:53.993Z,3.27
2019-05-09T02:03:24.482Z,3.20
2019-05-09T02:05:53.749Z,4.12
2019-05-09T02:08:23.663Z,3.10
2019-05-09T02:10:54.192Z,3.80
2019-05-09T02:13:23.681Z,3.27
2019-05-09T02:16:10.853Z,3.40
2019-05-09T02:18:44.531Z,3.40
2019-05-09T02:21:14.518Z,3.55
2019-05-09T02:23:43.914Z,3.52
2019-05-09T02:26:13.728Z,3.05
2019-05-09T02:28:43.400Z,3.70
2019-05-09T02:31:16.213Z,3.35
2019-05-09T02:33:45.478Z,4.80
2019-05-09T02:36:14.964Z,3.72
2019-05-09T02:38:44.958Z,3.42
2019-05-09T02:41:14.217Z,3.33
2019-05-09T02:43:43.528Z,3.45
2019-05-09T02:46:14.412Z,3.67
2019-05-09T02:48:43.788Z,4.17
2019-05-09T02:51:13.071Z,2.98
2019-05-09T02:53:42.349Z,3.37
2019-05-09T02:56:11.633Z,3.20
2019-05-09T02:58:48.329Z,2.85
2019-05-09T03:01:20.484Z,4.35
2019-05-09T03:03:49.794Z,3.35
2019-05-09T03:06:19.761Z,3.20
2019-05-09T03:08:49.410Z,3.87
2019-05-09T03:11:18.980Z,3.25
2019-05-09T03:13:49.560Z,3.52
2019-05-09T03:16:19.328Z,3.02
2019-05-09T03:18:49.587Z,4.12
2019-05-09T03:21:29.636Z,3.15
2019-05-09T03:23:59.132Z,3.92
2019-05-09T03:26:30.107Z,4.95
2019-05-09T03:29:03.705Z,5.85
2019-05-09T03:31:34.654Z,3.25
2019-05-09T03:34:03.943Z,4.05
2019-05-09T03:36:33.202Z,4.12
2019-05-09T03:39:02.491Z,4.25
2019-05-09T03:41:31.759Z,4.42
2019-05-09T03:44:01.222Z,3.50
2019-05-09T03:46:34.832Z,3.65
2019-05-09T03:49:08.711Z,4.37
2019-05-09T03:51:38.060Z,3.22
2019-05-09T03:54:08.027Z,3.02
2019-05-09T03:56:42.155Z,2.98
2019-05-09T03:59:11.430Z,3.52
2019-05-09T04:01:40.813Z,4.22
2019-05-09T04:04:10.104Z,3.40
2019-05-09T04:06:39.510Z,4.62
2019-05-09T04:09:08.819Z,4.55
2019-05-09T04:11:38.263Z,3.62
2019-05-09T04:14:09.242Z,5.97
2019-05-09T04:16:38.532Z,4.03
2019-05-09T04:19:08.385Z,3.83
2019-05-09T04:21:38.386Z,3.33
2019-05-09T04:24:08.491Z,5.00
2019-05-09T04:26:48.506Z,6.22
2019-05-09T04:29:18.371Z,3.02
2019-05-09T04:31:48.401Z,5.85
2019-05-09T04:34:18.397Z,5.42
2019-05-09T04:36:48.385Z,5.97
2019-05-09T04:39:23.123Z,4.10
2019-05-09T04:41:49.015Z,4.20
2019-05-09T04:44:21.790Z,5.30
2019-05-09T04:46:54.146Z,3.92
2019-05-09T04:49:21.870Z,3.67
2019-05-09T04:51:51.187Z,5.08
2019-05-09T04:54:20.473Z,4.30
2019-05-09T04:56:49.771Z,3.55
2019-05-09T04:59:19.067Z,6.45
2019-05-09T05:01:52.986Z,5.28
2019-05-09T05:04:24.002Z,5.35
2019-05-09T05:06:53.382Z,4.20
2019-05-09T05:09:23.673Z,4.75
2019-05-09T05:11:52.964Z,5.30
2019-05-09T05:14:22.260Z,3.62
2019-05-09T05:16:53.832Z,5.45
2019-05-09T05:19:24.083Z,4.33
2019-05-09T05:21:55.200Z,3.75
2019-05-09T05:24:29.116Z,4.10
2019-05-09T05:26:58.388Z,5.03
2019-05-09T05:29:28.289Z,4.28
2019-05-09T05:31:59.653Z,3.80
2019-05-09T05:34:47.986Z,5.72
2019-05-09T05:37:17.721Z,5.62
2019-05-09T05:39:48.205Z,5.22
2019-05-09T05:42:17.650Z,4.33
2019-05-09T05:44:47.621Z,4.05
2019-05-09T05:47:21.586Z,4.67
2019-05-09T05:49:50.943Z,5.45
2019-05-09T05:52:20.247Z,6.75
2019-05-09T05:54:49.772Z,4.55
2019-05-09T05:57:19.024Z,5.15
2019-05-09T05:59:48.398Z,5.08
2019-05-09T06:02:17.912Z,5.33
2019-05-09T06:04:48.704Z,7.97
2019-05-09T06:07:18.553Z,5.87
2019-05-09T06:09:48.398Z,6.72
2019-05-09T06:12:18.533Z,8.98
2019-05-09T06:14:49.013Z,5.75
2019-05-09T06:17:18.291Z,6.35
2019-05-09T06:19:48.200Z,5.58
2019-05-09T06:22:18.622Z,5.28
2019-05-09T06:24:48.018Z,5.83
2019-05-09T06:27:18.235Z,5.97
2019-05-09T06:29:47.853Z,5.22
2019-05-09T06:32:18.898Z,5.75
2019-05-09T06:34:48.194Z,5.83
2019-05-09T06:37:18.400Z,5.90
2019-05-09T06:39:48.616Z,6.08
2019-05-09T06:42:18.333Z,6.33
2019-05-09T06:44:51.869Z,5.53
2019-05-09T06:47:27.738Z,5.55
2019-05-09T06:49:58.333Z,5.50
2019-05-09T06:52:28.243Z,6.28
2019-05-09T06:54:58.354Z,6.97
2019-05-09T06:57:28.234Z,4.25
2019-05-09T06:59:58.053Z,5.67
2019-05-09T07:02:29.135Z,6.70
2019-05-09T07:05:00.059Z,5.28
2019-05-09T07:07:32.076Z,5.37
2019-05-09T07:10:03.008Z,5.50
2019-05-09T07:12:32.338Z,5.12
2019-05-09T07:15:01.685Z,5.90
2019-05-09T07:17:32.214Z,4.65
2019-05-09T07:20:02.598Z,6.12
2019-05-09T07:22:33.693Z,4.67
2019-05-09T07:25:07.563Z,5.22
2019-05-09T07:27:43.394Z,9.38
2019-05-09T07:30:14.422Z,7.33
2019-05-09T07:33:02.073Z,6.67
2019-05-09T07:35:31.440Z,5.10
2019-05-09T07:38:00.731Z,5.35
2019-05-09T07:40:30.810Z,7.35
2019-05-09T07:43:01.491Z,8.38
2019-05-09T07:45:30.806Z,7.87
2019-05-09T07:48:00.115Z,9.73
2019-05-09T07:50:29.527Z,6.65
2019-05-09T07:52:59.633Z,7.33
2019-05-09T07:55:28.969Z,8.20
2019-05-09T07:57:59.926Z,6.85
2019-05-09T08:00:35.229Z,6.67
2019-05-09T08:03:04.575Z,7.47
2019-05-09T08:05:34.028Z,10.72
2019-05-09T08:08:07.971Z,5.87
2019-05-09T08:10:38.515Z,5.90
2019-05-09T08:13:11.521Z,6.40
2019-05-09T08:15:38.826Z,8.28
2019-05-09T08:18:08.744Z,8.78
2019-05-09T08:20:40.868Z,6.00
2019-05-09T08:23:11.059Z,7.60
2019-05-09T08:25:40.465Z,11.63
2019-05-09T08:28:09.875Z,8.60
2019-05-09T08:30:40.281Z,10.53
2019-05-09T08:33:10.378Z,7.12
2019-05-09T08:35:49.872Z,10.98
2019-05-09T08:38:17.843Z,10.10
2019-05-09T08:40:48.513Z,11.73
2019-05-09T08:43:19.905Z,9.18
2019-05-09T08:45:48.923Z,9.18
2019-05-09T08:48:18.452Z,8.98
2019-05-09T08:50:49.497Z,7.15
2019-05-09T08:53:19.053Z,13.30
2019-05-09T08:55:48.392Z,11.12
2019-05-09T08:58:19.804Z,8.50
2019-05-09T09:00:49.235Z,7.92
2019-05-09T09:03:19.594Z,6.53
2019-05-09T09:05:49.312Z,8.50
2019-05-09T09:08:18.787Z,10.65
2019-05-09T09:10:49.155Z,8.83
2019-05-09T09:13:18.510Z,6.90
2019-05-09T09:16:05.473Z,10.58
2019-05-09T09:18:18.949Z,10.38
2019-05-09T09:20:48.682Z,12.18
2019-05-09T09:23:18.322Z,9.65
2019-05-09T09:25:48.707Z,7.58
2019-05-09T09:28:18.473Z,12.30
2019-05-09T09:30:48.609Z,8.50
2019-05-09T09:33:17.883Z,8.18
2019-05-09T09:35:49.031Z,5.83
2019-05-09T09:38:18.012Z,9.78
2019-05-09T09:40:47.892Z,6.53
2019-05-09T09:43:17.721Z,6.37
2019-05-09T09:45:48.059Z,10.58
2019-05-09T09:48:18.281Z,9.13
2019-05-09T09:50:51.463Z,7.30
2019-05-09T09:53:19.560Z,7.53
2019-05-09T09:55:48.842Z,7.42
2019-05-09T09:58:18.939Z,9.83
2019-05-09T10:00:58.459Z,8.20
2019-05-09T10:03:27.356Z,9.53
2019-05-09T10:05:57.721Z,10.23
2019-05-09T10:08:27.464Z,7.95
2019-05-09T10:10:58.965Z,8.78
2019-05-09T10:13:28.630Z,6.35
2019-05-09T10:16:28.583Z,9.65
2019-05-09T10:18:52.923Z,10.13
2019-05-09T10:21:23.874Z,10.82
2019-05-09T10:23:53.170Z,6.97
2019-05-09T10:26:22.485Z,9.60
2019-05-09T10:28:51.719Z,14.35
2019-05-09T10:31:21.531Z,9.85
2019-05-09T10:33:50.970Z,9.98
2019-05-09T10:36:20.414Z,10.10
2019-05-09T10:38:49.848Z,12.63
2019-05-09T10:41:22.686Z,11.83
2019-05-09T10:43:53.962Z,14.53
2019-05-09T10:46:33.543Z,8.48
2019-05-09T10:49:03.333Z,9.20
2019-05-09T10:51:32.738Z,10.48
2019-05-09T10:54:01.938Z,11.93
2019-05-09T10:56:31.220Z,10.98
2019-05-09T10:59:00.433Z,9.73
2019-05-09T11:01:29.830Z,11.40
2019-05-09T11:03:59.363Z,10.53
2019-05-09T11:06:29.082Z,7.10
2019-05-09T11:08:58.782Z,8.25
2019-05-09T11:11:28.582Z,7.33
2019-05-09T11:14:01.033Z,9.25
2019-05-09T11:16:41.824Z,8.93
2019-05-09T11:19:04.359Z,10.55
2019-05-09T11:21:33.566Z,8.05
2019-05-09T11:24:02.794Z,12.93
2019-05-09T11:26:32.061Z,10.65
2019-05-09T11:29:01.346Z,6.78
2019-05-09T11:31:30.629Z,8.90
2019-05-09T11:33:59.935Z,6.37
2019-05-09T11:36:30.217Z,6.83
2019-05-09T11:39:00.801Z,10.13
2019-05-09T11:41:30.813Z,8.28
2019-05-09T11:44:00.768Z,8.60
2019-05-09T11:46:29.982Z,9.85
2019-05-09T11:48:59.633Z,6.58
2019-05-09T11:51:29.538Z,6.75
2019-05-09T11:53:58.901Z,10.70
2019-05-09T11:56:28.219Z,10.35
2019-05-09T11:58:57.880Z,9.98
2019-05-09T12:01:29.503Z,8.58
2019-05-09T12:03:59.718Z,11.35
2019-05-09T12:06:29.416Z,10.43
2019-05-09T12:08:59.057Z,10.03
2019-05-09T12:11:28.413Z,8.33
2019-05-09T12:13:58.364Z,7.00
2019-05-09T12:16:29.734Z,12.03
2019-05-09T12:18:58.961Z,8.93
2019-05-09T12:21:28.563Z,9.88
2019-05-09T12:23:58.497Z,7.67
2019-05-09T12:26:29.293Z,8.13
2019-05-09T12:29:01.983Z,6.78
2019-05-09T12:31:32.779Z,8.95
2019-05-09T12:34:02.053Z,8.30
2019-05-09T12:36:31.387Z,6.75
2019-05-09T12:39:00.960Z,8.43
2019-05-09T12:41:31.371Z,8.90
2019-05-09T12:44:01.170Z,8.85
2019-05-09T12:46:30.447Z,7.12
2019-05-09T12:48:59.647Z,10.45
2019-05-09T12:51:28.879Z,10.05
2019-05-09T12:53:58.194Z,9.58
2019-05-09T12:56:28.602Z,7.20
2019-05-09T12:58:58.160Z,8.35
2019-05-09T13:01:27.465Z,10.48
2019-05-09T13:03:58.341Z,8.68
2019-05-09T13:06:29.577Z,7.00
2019-05-09T13:08:58.793Z,7.45
2019-05-09T13:11:28.249Z,6.00
2019-05-09T13:13:57.500Z,10.25
2019-05-09T13:16:47.592Z,6.87
2019-05-09T13:19:09.678Z,10.23
2019-05-09T13:21:39.211Z,9.85
2019-05-09T13:24:09.312Z,7.25
2019-05-09T13:26:38.893Z,8.63
2019-05-09T13:29:08.352Z,6.90
2019-05-09T13:31:39.649Z,8.85
2019-05-09T13:34:09.128Z,8.15
2019-05-09T13:36:38.517Z,6.95
2019-05-09T13:39:09.654Z,7.72
2019-05-09T13:41:39.696Z,8.13
2019-05-09T13:44:13.591Z,8.25
2019-05-09T13:46:40.070Z,7.90
2019-05-09T13:49:14.868Z,7.22
2019-05-09T13:51:48.595Z,8.80
2019-05-09T13:54:12.773Z,6.42
2019-05-09T13:56:41.963Z,9.28
2019-05-09T13:59:11.178Z,5.78
2019-05-09T14:01:40.485Z,7.37
2019-05-09T14:04:09.797Z,8.30
2019-05-09T14:06:39.076Z,7.62
2019-05-09T14:09:10.110Z,8.10
2019-05-09T14:11:39.717Z,8.15
2019-05-09T14:14:08.967Z,7.17
2019-05-09T14:16:38.884Z,10.53
2019-05-09T14:19:29.885Z,8.78
2019-05-09T14:21:39.535Z,8.28
2019-05-09T14:24:14.831Z,8.43
2019-05-09T14:26:40.760Z,8.73
2019-05-09T14:29:12.638Z,7.20
2019-05-09T14:31:42.137Z,7.58
2019-05-09T14:34:12.375Z,9.93
2019-05-09T14:36:45.251Z,10.48
2019-05-09T14:39:12.657Z,9.20
2019-05-09T14:41:41.928Z,6.70
2019-05-09T14:44:11.174Z,9.45
2019-05-09T14:46:40.464Z,7.62
2019-05-09T14:49:09.695Z,8.33
2019-05-09T14:51:39.052Z,7.78
2019-05-09T14:54:08.609Z,9.28
2019-05-09T14:56:41.784Z,5.35
2019-05-09T14:59:10.773Z,9.23
2019-05-09T15:01:43.710Z,5.28
2019-05-09T15:04:10.904Z,8.43
2019-05-09T15:06:40.189Z,11.10
2019-05-09T15:09:09.491Z,8.15
2019-05-09T15:11:39.751Z,7.40
2019-05-09T15:14:09.186Z,11.57
2019-05-09T15:16:39.122Z,7.78
2019-05-09T15:19:08.704Z,5.12
2019-05-09T15:21:38.480Z,8.40
2019-05-09T15:24:09.516Z,8.70
2019-05-09T15:26:38.805Z,5.37
2019-05-09T15:29:11.257Z,7.70
2019-05-09T15:31:40.429Z,7.00
2019-05-09T15:34:10.528Z,8.65
2019-05-09T15:36:39.904Z,6.58
2019-05-09T15:39:09.151Z,5.75
2019-05-09T15:41:38.673Z,6.17
2019-05-09T15:44:08.631Z,6.58
2019-05-09T15:46:45.514Z,5.72
2019-05-09T15:49:14.720Z,4.60
2019-05-09T15:51:43.972Z,7.62
2019-05-09T15:54:13.502Z,11.33
2019-05-09T15:56:44.303Z,8.03
2019-05-09T15:59:13.745Z,6.95
2019-05-09T16:01:43.363Z,8.65
2019-05-09T16:04:17.560Z,7.75
2019-05-09T16:06:50.862Z,5.90
2019-05-09T16:09:21.186Z,5.28
2019-05-09T16:11:50.487Z,6.03
2019-05-09T16:14:19.742Z,7.00
2019-05-09T16:16:49.057Z,7.90
2019-05-09T16:19:19.305Z,6.55
2019-05-09T16:21:48.487Z,6.30
2019-05-09T16:24:18.782Z,7.03
2019-05-09T16:26:48.912Z,4.53
2019-05-09T16:29:18.394Z,8.03
2019-05-09T16:31:48.193Z,5.62
2019-05-09T16:34:17.956Z,5.58
2019-05-09T16:36:48.122Z,3.45
2019-05-09T16:39:18.245Z,11.08
2019-05-09T16:41:48.458Z,7.00
2019-05-09T16:44:25.917Z,6.50
2019-05-09T16:46:57.621Z,5.20
2019-05-09T16:49:29.353Z,7.62
2019-05-09T16:51:58.264Z,5.53
2019-05-09T16:54:29.270Z,6.17
2019-05-09T16:56:59.989Z,7.15
2019-05-09T16:59:29.553Z,4.80
2019-05-09T17:01:58.803Z,6.72
2019-05-09T17:04:27.999Z,6.87
2019-05-09T17:06:57.690Z,4.83
2019-05-09T17:09:28.587Z,9.25
2019-05-09T17:11:57.861Z,3.27
2019-05-09T17:14:28.338Z,6.28
2019-05-09T17:17:00.182Z,5.62
2019-05-09T17:19:32.479Z,6.80
2019-05-09T17:22:09.207Z,3.92
2019-05-09T17:24:39.345Z,7.37
2019-05-09T17:27:08.776Z,3.25
2019-05-09T17:29:39.288Z,4.72
2019-05-09T17:32:09.445Z,5.10
2019-05-09T17:34:42.231Z,5.25
2019-05-09T17:37:10.701Z,6.78
2019-05-09T17:39:39.885Z,3.98
2019-05-09T17:42:10.319Z,3.33
2019-05-09T17:44:39.635Z,5.65
2019-05-09T17:47:08.990Z,4.28
2019-05-09T17:49:38.180Z,4.42
2019-05-09T17:52:07.693Z,5.30
2019-05-09T17:54:37.898Z,3.17
2019-05-09T17:57:07.962Z,3.02
2019-05-09T17:59:39.289Z,2.90
2019-05-09T18:02:09.919Z,5.08
2019-05-09T18:04:39.259Z,3.08
2019-05-09T18:07:08.899Z,6.08
2019-05-09T18:09:38.177Z,3.40
2019-05-09T18:12:08.313Z,6.08
2019-05-09T18:14:38.695Z,4.40
2019-05-09T18:17:08.013Z,6.87
2019-05-09T18:19:38.656Z,3.33
2019-05-09T18:22:08.297Z,8.28
2019-05-09T18:24:37.749Z,3.22
2019-05-09T18:27:07.664Z,5.65
2019-05-09T18:29:38.119Z,3.72
2019-05-09T18:32:15.402Z,3.47
2019-05-09T18:34:44.590Z,3.83
2019-05-09T18:37:13.760Z,4.12
2019-05-09T18:39:42.936Z,4.17
2019-05-09T18:42:12.560Z,4.28
2019-05-09T18:44:41.839Z,2.90
2019-05-09T18:47:11.047Z,3.85
2019-05-09T18:49:40.225Z,3.15
2019-05-09T18:52:09.486Z,3.85
2019-05-09T18:54:38.829Z,3.70
2019-05-09T18:57:08.008Z,4.85
2019-05-09T18:59:37.285Z,3.12
2019-05-09T19:02:06.451Z,3.50
2019-05-09T19:04:35.599Z,3.50
2019-05-09T19:07:20.787Z,3.70
2019-05-09T19:09:35.773Z,3.17
2019-05-09T19:12:05.206Z,2.58
2019-05-09T19:14:34.488Z,2.85
2019-05-09T19:17:20.187Z,4.05
2019-05-09T19:19:51.048Z,2.60
2019-05-09T19:22:22.692Z,4.65
2019-05-09T19:24:52.219Z,3.67
2019-05-09T19:27:21.457Z,3.80
2019-05-09T19:29:50.747Z,4.50
2019-05-09T19:32:21.041Z,4.35
2019-05-09T19:34:50.266Z,3.33
2019-05-09T19:37:19.534Z,3.22
2019-05-09T19:39:48.708Z,6.42
2019-05-09T19:42:17.879Z,5.12
2019-05-09T19:44:47.141Z,5.25
2019-05-09T19:47:17.299Z,3.70
2019-05-09T19:49:46.559Z,3.62
2019-05-09T19:52:15.714Z,3.10
2019-05-09T19:54:44.897Z,4.47
2019-05-09T19:57:14.085Z,3.00
2019-05-09T19:59:43.349Z,5.45
2019-05-09T20:02:12.593Z,3.98
2019-05-09T20:04:41.969Z,3.62
2019-05-09T20:07:11.229Z,4.28
2019-05-09T20:09:42.040Z,4.15
2019-05-09T20:12:29.457Z,3.27
2019-05-09T20:15:00.340Z,5.12
2019-05-09T20:17:29.516Z,4.33
2019-05-09T20:19:58.701Z,10.88
2019-05-09T20:22:27.962Z,3.65
2019-05-09T20:24:57.247Z,4.12
2019-05-09T20:27:26.455Z,3.40
2019-05-09T20:29:55.716Z,4.22
2019-05-09T20:32:24.912Z,4.62
2019-05-09T20:34:54.214Z,3.45
2019-05-09T20:37:23.756Z,4.20
2019-05-09T20:39:53.138Z,3.70
2019-05-09T20:42:22.612Z,3.50
2019-05-09T20:44:52.081Z,3.83
2019-05-09T20:47:21.443Z,3.22
2019-05-09T20:49:50.845Z,3.85
2019-05-09T20:52:21.885Z,3.65
2019-05-09T20:54:51.448Z,4.45
2019-05-09T20:57:20.942Z,4.80
2019-05-09T20:59:50.332Z,4.33
2019-05-09T21:02:19.818Z,3.92
2019-05-09T21:04:49.199Z,5.78
2019-05-09T21:07:18.584Z,3.05
2019-05-09T21:09:47.928Z,3.30
2019-05-09T21:12:17.393Z,2.70
2019-05-09T21:14:46.846Z,4.37
2019-05-09T21:17:16.220Z,3.25
2019-05-09T21:19:45.668Z,2.85
2019-05-09T21:22:15.117Z,2.27
2019-05-09T21:24:44.538Z,3.15
2019-05-09T21:27:13.905Z,2.87
2019-05-09T21:29:43.352Z,3.45
2019-05-09T21:32:12.814Z,3.27
2019-05-09T21:34:42.079Z,4.40
2019-05-09T21:37:13.916Z,4.72
2019-05-09T21:39:42.207Z,3.35
2019-05-09T21:42:11.453Z,3.62
2019-05-09T21:44:40.745Z,3.50
2019-05-09T21:47:09.974Z,2.55
2019-05-09T21:49:39.249Z,3.33
2019-05-09T21:52:08.503Z,2.75
2019-05-09T21:54:37.796Z,2.77
2019-05-09T21:57:07.031Z,3.47
2019-05-09T21:59:36.444Z,4.15
2019-05-09T22:02:05.722Z,3.75
2019-05-09T22:04:34.973Z,3.87
2019-05-09T22:07:04.201Z,3.05
2019-05-09T22:09:33.450Z,2.95
2019-05-09T22:12:02.713Z,3.50
2019-05-09T22:14:32.028Z,3.15
2019-05-09T22:17:04.010Z,3.47
2019-05-09T22:19:33.267Z,3.27
2019-05-09T22:22:02.501Z,4.22
2019-05-09T22:24:31.749Z,4.60
2019-05-09T22:27:01.023Z,4.78
2019-05-09T22:29:30.291Z,3.80
2019-05-09T22:31:59.453Z,3.47
2019-05-09T22:34:28.657Z,3.65
2019-05-09T22:36:57.797Z,3.90
2019-05-09T22:39:27.001Z,3.02
2019-05-09T22:41:56.214Z,4.62
2019-05-09T22:44:25.395Z,2.87
2019-05-09T22:46:54.556Z,4.55
2019-05-09T22:49:23.734Z,3.52
2019-05-09T22:51:52.894Z,4.30
2019-05-09T22:54:22.094Z,3.20
2019-05-09T22:56:51.423Z,3.37
2019-05-09T22:59:20.587Z,3.40
2019-05-09T23:01:49.799Z,3.45
2019-05-09T23:04:19.039Z,3.45
2019-05-09T23:06:48.256Z,3.10
2019-05-09T23:09:17.512Z,3.12
2019-05-09T23:11:46.733Z,4.05
2019-05-09T23:14:16.098Z,3.52
2019-05-09T23:16:45.299Z,4.45
2019-05-09T23:19:14.535Z,3.27
2019-05-09T23:21:43.722Z,2.70
2019-05-09T23:24:27.481Z,3.85
2019-05-09T23:26:45.407Z,5.30
2019-05-09T23:29:14.607Z,2.95
2019-05-09T23:32:02.370Z,4.53
2019-05-09T23:34:31.581Z,2.92
2019-05-09T23:37:00.749Z,3.65
2019-05-09T23:39:31.633Z,3.85
2019-05-09T23:42:00.883Z,3.20
2019-05-09T23:44:30.193Z,3.55
2019-05-09T23:46:59.387Z,2.90
2019-05-09T23:49:28.622Z,3.30
2019-05-09T23:51:57.796Z,3.25
2019-05-09T23:54:46.898Z,2.98
2019-05-09T23:57:33.995Z,3.10
